sensor_id;sensor_type;location;lat;lon;timestamp;temperature;humidity
18797;DHT22;9526;52.612;13.300;2024-01-10T00:01:25;-7.80;99.90
18797;DHT22;9526;52.612;13.300;2024-01-10T00:03:49;-7.90;99.90
18797;DHT22;9526;52.612;13.300;2024-01-10T00:06:13;-7.90;99.90
18797;DHT22;9526;52.612;13.300;2024-01-10T00:08:37;-7.80;99.90
18797;DHT22;9526;52.612;13.300;2024-01-10T00:11:03;-7.80;99.90
18797;DHT22;9526;52.612;13.300;2024-01-10T00:13:27;-7.80;99.90
18797;DHT22;9526;52.612;13.300;2024-01-10T00:15:50;-7.80;99.90
18797;DHT22;9526;52.612;13.300;2024-01-10T00:18:14;-7.70;99.90
18797;DHT22;9526;52.612;13.300;2024-01-10T00:20:38;-7.80;99.90
18797;DHT22;9526;52.612;13.300;2024-01-10T00:23:02;-7.80;99.90
18797;DHT22;9526;52.612;13.300;2024-01-10T00:25:26;-7.80;99.90
18797;DHT22;9526;52.612;13.300;2024-01-10T00:27:51;-7.80;99.90
18797;DHT22;9526;52.612;13.300;2024-01-10T00:30:15;-7.80;99.90
18797;DHT22;9526;52.612;13.300;2024-01-10T00:32:39;-7.80;99.90
18797;DHT22;9526;52.612;13.300;2024-01-10T00:35:03;-7.90;99.90
18797;DHT22;9526;52.612;13.300;2024-01-10T00:37:27;-7.90;99.90
18797;DHT22;9526;52.612;13.300;2024-01-10T00:39:51;-7.90;99.90
18797;DHT22;9526;52.612;13.300;2024-01-10T00:42:15;-7.90;99.90
18797;DHT22;9526;52.612;13.300;2024-01-10T00:44:40;-7.90;99.90
18797;DHT22;9526;52.612;13.300;2024-01-10T00:47:03;-7.90;99.90
18797;DHT22;9526;52.612;13.300;2024-01-10T00:49:27;-7.90;99.90
18797;DHT22;9526;52.612;13.300;2024-01-10T00:51:51;-8.00;99.90
18797;DHT22;9526;52.612;13.300;2024-01-10T00:54:14;-8.00;99.90
18797;DHT22;9526;52.612;13.300;2024-01-10T00:56:38;-8.00;99.90
18797;DHT22;9526;52.612;13.300;2024-01-10T00:59:02;-8.00;99.90
18797;DHT22;9526;52.612;13.300;2024-01-10T01:01:27;-8.00;99.90
18797;DHT22;9526;52.612;13.300;2024-01-10T01:03:51;-8.00;99.90
18797;DHT22;9526;52.612;13.300;2024-01-10T01:06:15;-8.00;99.90
18797;DHT22;9526;52.612;13.300;2024-01-10T01:08:39;-8.00;99.90
18797;DHT22;9526;52.612;13.300;2024-01-10T01:11:03;-8.00;99.90
18797;DHT22;9526;52.612;13.300;2024-01-10T01:13:27;-8.00;99.90
18797;DHT22;9526;52.612;13.300;2024-01-10T01:15:50;-8.10;99.90
18797;DHT22;9526;52.612;13.300;2024-01-10T01:18:16;-8.10;99.90
18797;DHT22;9526;52.612;13.300;2024-01-10T01:20:41;-8.10;99.90
18797;DHT22;9526;52.612;13.300;2024-01-10T01:23:05;-8.10;99.90
18797;DHT22;9526;52.612;13.300;2024-01-10T01:25:28;-8.10;99.90
18797;DHT22;9526;52.612;13.300;2024-01-10T01:27:52;-8.10;99.90
18797;DHT22;9526;52.612;13.300;2024-01-10T01:30:16;-8.10;99.90
18797;DHT22;9526;52.612;13.300;2024-01-10T01:32:40;-8.10;99.90
18797;DHT22;9526;52.612;13.300;2024-01-10T01:35:06;-8.10;99.90
18797;DHT22;9526;52.612;13.300;2024-01-10T01:37:29;-8.10;99.90
18797;DHT22;9526;52.612;13.300;2024-01-10T01:39:53;-8.10;99.90
18797;DHT22;9526;52.612;13.300;2024-01-10T01:42:17;-8.10;99.90
18797;DHT22;9526;52.612;13.300;2024-01-10T01:44:40;-8.10;99.90
18797;DHT22;9526;52.612;13.300;2024-01-10T01:47:04;-8.10;99.90
18797;DHT22;9526;52.612;13.300;2024-01-10T01:49:28;-8.10;99.90
18797;DHT22;9526;52.612;13.300;2024-01-10T01:51:55;-8.10;99.90
18797;DHT22;9526;52.612;13.300;2024-01-10T01:54:19;-8.10;99.90
18797;DHT22;9526;52.612;13.300;2024-01-10T01:56:44;-8.10;99.90
18797;DHT22;9526;52.612;13.300;2024-01-10T01:59:08;-8.20;99.90
18797;DHT22;9526;52.612;13.300;2024-01-10T02:01:32;-8.20;99.90
18797;DHT22;9526;52.612;13.300;2024-01-10T02:03:56;-8.20;99.90
18797;DHT22;9526;52.612;13.300;2024-01-10T02:06:20;-8.20;99.90
18797;DHT22;9526;52.612;13.300;2024-01-10T02:08:45;-8.20;99.90
18797;DHT22;9526;52.612;13.300;2024-01-10T02:11:09;-8.20;99.90
18797;DHT22;9526;52.612;13.300;2024-01-10T02:13:33;-8.20;99.90
18797;DHT22;9526;52.612;13.300;2024-01-10T02:15:57;-8.20;99.90
18797;DHT22;9526;52.612;13.300;2024-01-10T02:18:21;-8.20;99.90
18797;DHT22;9526;52.612;13.300;2024-01-10T02:20:45;-8.20;99.90
18797;DHT22;9526;52.612;13.300;2024-01-10T02:23:09;-8.20;99.90
18797;DHT22;9526;52.612;13.300;2024-01-10T02:25:34;-8.20;99.90
18797;DHT22;9526;52.612;13.300;2024-01-10T02:27:58;-8.20;99.90
18797;DHT22;9526;52.612;13.300;2024-01-10T02:30:22;-8.20;99.90
18797;DHT22;9526;52.612;13.300;2024-01-10T02:32:45;-8.20;99.90
18797;DHT22;9526;52.612;13.300;2024-01-10T02:35:09;-8.20;99.90
18797;DHT22;9526;52.612;13.300;2024-01-10T02:37:33;-8.20;99.90
18797;DHT22;9526;52.612;13.300;2024-01-10T02:39:57;-8.20;99.90
18797;DHT22;9526;52.612;13.300;2024-01-10T02:42:22;-8.20;99.90
18797;DHT22;9526;52.612;13.300;2024-01-10T02:44:45;-8.20;99.90
18797;DHT22;9526;52.612;13.300;2024-01-10T02:47:11;-8.20;99.90
18797;DHT22;9526;52.612;13.300;2024-01-10T02:49:35;-8.20;99.90
18797;DHT22;9526;52.612;13.300;2024-01-10T02:51:59;-8.20;99.90
18797;DHT22;9526;52.612;13.300;2024-01-10T02:54:23;-8.20;99.90
18797;DHT22;9526;52.612;13.300;2024-01-10T02:56:46;-8.20;99.90
18797;DHT22;9526;52.612;13.300;2024-01-10T02:59:11;-8.20;99.90
18797;DHT22;9526;52.612;13.300;2024-01-10T03:01:35;-8.20;99.90
18797;DHT22;9526;52.612;13.300;2024-01-10T03:03:59;-8.20;99.90
18797;DHT22;9526;52.612;13.300;2024-01-10T03:06:23;-8.20;99.90
18797;DHT22;9526;52.612;13.300;2024-01-10T03:08:48;-8.20;99.90
18797;DHT22;9526;52.612;13.300;2024-01-10T03:11:12;-8.20;99.90
18797;DHT22;9526;52.612;13.300;2024-01-10T03:13:35;-8.20;99.90
18797;DHT22;9526;52.612;13.300;2024-01-10T03:16:02;-8.20;99.90
18797;DHT22;9526;52.612;13.300;2024-01-10T03:18:26;-8.20;99.90
18797;DHT22;9526;52.612;13.300;2024-01-10T03:20:50;-8.20;99.90
18797;DHT22;9526;52.612;13.300;2024-01-10T03:23:14;-8.20;99.90
18797;DHT22;9526;52.612;13.300;2024-01-10T03:25:38;-8.20;99.90
18797;DHT22;9526;52.612;13.300;2024-01-10T03:28:01;-8.00;99.90
18797;DHT22;9526;52.612;13.300;2024-01-10T03:30:25;-8.20;99.90
18797;DHT22;9526;52.612;13.300;2024-01-10T03:32:50;-8.20;99.90
18797;DHT22;9526;52.612;13.300;2024-01-10T03:35:14;-8.20;99.90
18797;DHT22;9526;52.612;13.300;2024-01-10T03:37:38;-8.20;99.90
18797;DHT22;9526;52.612;13.300;2024-01-10T03:40:02;-8.20;99.90
18797;DHT22;9526;52.612;13.300;2024-01-10T03:42:26;-8.20;99.90
18797;DHT22;9526;52.612;13.300;2024-01-10T03:44:50;-8.20;99.90
18797;DHT22;9526;52.612;13.300;2024-01-10T03:47:13;-8.00;99.90
18797;DHT22;9526;52.612;13.300;2024-01-10T03:49:38;-8.20;99.90
18797;DHT22;9526;52.612;13.300;2024-01-10T03:52:02;-8.20;99.90
18797;DHT22;9526;52.612;13.300;2024-01-10T03:54:27;-8.20;99.90
18797;DHT22;9526;52.612;13.300;2024-01-10T03:56:50;-8.20;99.90
18797;DHT22;9526;52.612;13.300;2024-01-10T03:59:14;-8.20;99.90
18797;DHT22;9526;52.612;13.300;2024-01-10T04:01:38;-8.20;99.90
18797;DHT22;9526;52.612;13.300;2024-01-10T04:04:02;-8.20;99.90
18797;DHT22;9526;52.612;13.300;2024-01-10T04:06:27;-8.20;99.90
18797;DHT22;9526;52.612;13.300;2024-01-10T04:08:51;-8.20;99.90
18797;DHT22;9526;52.612;13.300;2024-01-10T04:11:15;-8.20;99.90
18797;DHT22;9526;52.612;13.300;2024-01-10T04:13:39;-8.20;99.90
18797;DHT22;9526;52.612;13.300;2024-01-10T04:16:03;-8.20;99.90
18797;DHT22;9526;52.612;13.300;2024-01-10T04:18:27;-8.30;99.90
18797;DHT22;9526;52.612;13.300;2024-01-10T04:20:51;-8.20;99.90
18797;DHT22;9526;52.612;13.300;2024-01-10T04:23:16;-8.20;99.90
18797;DHT22;9526;52.612;13.300;2024-01-10T04:25:40;-8.30;99.90
18797;DHT22;9526;52.612;13.300;2024-01-10T04:28:04;-8.30;99.90
18797;DHT22;9526;52.612;13.300;2024-01-10T04:30:28;-8.30;99.90
18797;DHT22;9526;52.612;13.300;2024-01-10T04:32:52;-8.30;99.90
18797;DHT22;9526;52.612;13.300;2024-01-10T04:35:16;-8.30;99.90
18797;DHT22;9526;52.612;13.300;2024-01-10T04:37:39;-8.30;99.90
18797;DHT22;9526;52.612;13.300;2024-01-10T04:40:06;-8.30;99.90
18797;DHT22;9526;52.612;13.300;2024-01-10T04:42:31;-8.40;99.90
18797;DHT22;9526;52.612;13.300;2024-01-10T04:44:54;-8.30;99.90
18797;DHT22;9526;52.612;13.300;2024-01-10T04:47:18;-8.30;99.90
18797;DHT22;9526;52.612;13.300;2024-01-10T04:49:42;-8.30;99.90
18797;DHT22;9526;52.612;13.300;2024-01-10T04:52:06;-8.30;99.90
18797;DHT22;9526;52.612;13.300;2024-01-10T04:54:29;-8.40;99.90
18797;DHT22;9526;52.612;13.300;2024-01-10T04:56:54;-8.40;99.90
18797;DHT22;9526;52.612;13.300;2024-01-10T04:59:18;-8.30;99.90
18797;DHT22;9526;52.612;13.300;2024-01-10T05:01:42;-8.40;99.90
18797;DHT22;9526;52.612;13.300;2024-01-10T05:04:06;-8.30;99.90
18797;DHT22;9526;52.612;13.300;2024-01-10T05:06:30;-8.40;99.90
18797;DHT22;9526;52.612;13.300;2024-01-10T05:08:53;-8.40;99.90
18797;DHT22;9526;52.612;13.300;2024-01-10T05:11:20;-8.40;99.90
18797;DHT22;9526;52.612;13.300;2024-01-10T05:13:46;-8.40;99.90
18797;DHT22;9526;52.612;13.300;2024-01-10T05:16:10;-8.40;99.90
18797;DHT22;9526;52.612;13.300;2024-01-10T05:18:34;-8.20;99.90
18797;DHT22;9526;52.612;13.300;2024-01-10T05:20:58;-8.40;99.90
18797;DHT22;9526;52.612;13.300;2024-01-10T05:23:21;-8.40;99.90
18797;DHT22;9526;52.612;13.300;2024-01-10T05:25:45;-8.40;99.90
18797;DHT22;9526;52.612;13.300;2024-01-10T05:28:09;-8.40;99.90
18797;DHT22;9526;52.612;13.300;2024-01-10T05:30:34;-8.40;99.90
18797;DHT22;9526;52.612;13.300;2024-01-10T05:32:58;-8.40;99.90
18797;DHT22;9526;52.612;13.300;2024-01-10T05:35:22;-8.40;99.90
18797;DHT22;9526;52.612;13.300;2024-01-10T05:37:46;-8.40;99.90
18797;DHT22;9526;52.612;13.300;2024-01-10T05:40:10;-8.50;99.90
18797;DHT22;9526;52.612;13.300;2024-01-10T05:42:34;-8.40;99.90
18797;DHT22;9526;52.612;13.300;2024-01-10T05:45:00;-8.50;99.90
18797;DHT22;9526;52.612;13.300;2024-01-10T05:47:25;-8.50;99.90
18797;DHT22;9526;52.612;13.300;2024-01-10T05:49:50;-8.50;99.90
18797;DHT22;9526;52.612;13.300;2024-01-10T05:52:15;-8.50;99.90
18797;DHT22;9526;52.612;13.300;2024-01-10T05:54:39;-8.50;99.90
18797;DHT22;9526;52.612;13.300;2024-01-10T05:57:03;-8.50;99.90
18797;DHT22;9526;52.612;13.300;2024-01-10T05:59:27;-8.50;99.90
18797;DHT22;9526;52.612;13.300;2024-01-10T06:01:51;-8.50;99.90
18797;DHT22;9526;52.612;13.300;2024-01-10T06:04:16;-8.50;99.90
18797;DHT22;9526;52.612;13.300;2024-01-10T06:06:40;-8.60;99.90
18797;DHT22;9526;52.612;13.300;2024-01-10T06:09:03;-8.60;99.90
18797;DHT22;9526;52.612;13.300;2024-01-10T06:11:27;-8.60;99.90
18797;DHT22;9526;52.612;13.300;2024-01-10T06:13:51;-8.60;99.90
18797;DHT22;9526;52.612;13.300;2024-01-10T06:16:18;-8.60;99.90
18797;DHT22;9526;52.612;13.300;2024-01-10T06:18:42;-8.60;99.90
18797;DHT22;9526;52.612;13.300;2024-01-10T06:21:08;-8.60;99.90
18797;DHT22;9526;52.612;13.300;2024-01-10T06:23:33;-8.60;99.90
18797;DHT22;9526;52.612;13.300;2024-01-10T06:25:56;-8.60;99.90
18797;DHT22;9526;52.612;13.300;2024-01-10T06:28:20;-8.70;99.90
18797;DHT22;9526;52.612;13.300;2024-01-10T06:30:45;-8.60;99.90
18797;DHT22;9526;52.612;13.300;2024-01-10T06:33:09;-8.70;99.90
18797;DHT22;9526;52.612;13.300;2024-01-10T06:35:32;-8.70;99.90
18797;DHT22;9526;52.612;13.300;2024-01-10T06:37:58;-8.60;99.90
18797;DHT22;9526;52.612;13.300;2024-01-10T06:40:21;-8.70;99.90
18797;DHT22;9526;52.612;13.300;2024-01-10T06:42:45;-8.70;99.90
18797;DHT22;9526;52.612;13.300;2024-01-10T06:45:10;-8.70;99.90
18797;DHT22;9526;52.612;13.300;2024-01-10T06:47:34;-8.70;99.90
18797;DHT22;9526;52.612;13.300;2024-01-10T06:49:58;-8.70;99.90
18797;DHT22;9526;52.612;13.300;2024-01-10T06:52:21;-8.70;99.90
18797;DHT22;9526;52.612;13.300;2024-01-10T06:54:46;-8.70;99.90
18797;DHT22;9526;52.612;13.300;2024-01-10T06:57:10;-8.70;99.90
18797;DHT22;9526;52.612;13.300;2024-01-10T06:59:34;-8.70;99.90
18797;DHT22;9526;52.612;13.300;2024-01-10T07:01:57;-8.70;99.90
18797;DHT22;9526;52.612;13.300;2024-01-10T07:04:23;-8.70;99.90
18797;DHT22;9526;52.612;13.300;2024-01-10T07:06:47;-8.70;99.90
18797;DHT22;9526;52.612;13.300;2024-01-10T07:09:10;-8.70;99.90
18797;DHT22;9526;52.612;13.300;2024-01-10T07:11:36;-8.70;99.90
18797;DHT22;9526;52.612;13.300;2024-01-10T07:13:59;-8.70;99.90
18797;DHT22;9526;52.612;13.300;2024-01-10T07:16:23;-8.70;99.90
18797;DHT22;9526;52.612;13.300;2024-01-10T07:18:47;-8.70;99.90
18797;DHT22;9526;52.612;13.300;2024-01-10T07:21:13;-8.70;99.90
18797;DHT22;9526;52.612;13.300;2024-01-10T07:23:37;-8.70;99.90
18797;DHT22;9526;52.612;13.300;2024-01-10T07:26:03;-8.70;99.90
18797;DHT22;9526;52.612;13.300;2024-01-10T07:28:28;-8.70;99.90
18797;DHT22;9526;52.612;13.300;2024-01-10T07:30:52;-8.70;99.90
18797;DHT22;9526;52.612;13.300;2024-01-10T07:33:17;-8.70;99.90
18797;DHT22;9526;52.612;13.300;2024-01-10T07:35:40;-8.70;99.90
18797;DHT22;9526;52.612;13.300;2024-01-10T07:38:04;-8.70;99.90
18797;DHT22;9526;52.612;13.300;2024-01-10T07:40:29;-8.60;99.90
18797;DHT22;9526;52.612;13.300;2024-01-10T07:42:53;-8.60;99.90
18797;DHT22;9526;52.612;13.300;2024-01-10T07:45:19;-8.60;99.90
18797;DHT22;9526;52.612;13.300;2024-01-10T07:47:43;-8.60;99.90
18797;DHT22;9526;52.612;13.300;2024-01-10T07:50:09;-8.60;99.90
18797;DHT22;9526;52.612;13.300;2024-01-10T07:52:36;-8.50;99.90
18797;DHT22;9526;52.612;13.300;2024-01-10T07:55:01;-8.50;99.90
18797;DHT22;9526;52.612;13.300;2024-01-10T07:57:27;-8.50;99.90
18797;DHT22;9526;52.612;13.300;2024-01-10T07:59:51;-8.50;99.90
18797;DHT22;9526;52.612;13.300;2024-01-10T08:02:16;-8.40;99.90
18797;DHT22;9526;52.612;13.300;2024-01-10T08:04:39;-8.40;99.90
18797;DHT22;9526;52.612;13.300;2024-01-10T08:07:03;-8.30;99.90
18797;DHT22;9526;52.612;13.300;2024-01-10T08:09:27;-8.40;99.90
18797;DHT22;9526;52.612;13.300;2024-01-10T08:11:51;-8.30;99.90
18797;DHT22;9526;52.612;13.300;2024-01-10T08:14:15;-8.30;99.90
18797;DHT22;9526;52.612;13.300;2024-01-10T08:16:39;-8.20;99.90
18797;DHT22;9526;52.612;13.300;2024-01-10T08:19:04;-8.20;99.90
18797;DHT22;9526;52.612;13.300;2024-01-10T08:21:28;-8.10;99.90
18797;DHT22;9526;52.612;13.300;2024-01-10T08:23:52;-8.10;99.90
18797;DHT22;9526;52.612;13.300;2024-01-10T08:26:15;-8.00;99.90
18797;DHT22;9526;52.612;13.300;2024-01-10T08:28:39;-8.00;99.90
18797;DHT22;9526;52.612;13.300;2024-01-10T08:31:04;-8.00;99.90
18797;DHT22;9526;52.612;13.300;2024-01-10T08:33:28;-7.90;99.90
18797;DHT22;9526;52.612;13.300;2024-01-10T08:35:56;-7.90;99.90
18797;DHT22;9526;52.612;13.300;2024-01-10T08:38:21;-7.80;99.90
18797;DHT22;9526;52.612;13.300;2024-01-10T08:40:44;-7.80;99.90
18797;DHT22;9526;52.612;13.300;2024-01-10T08:43:09;-7.80;99.90
18797;DHT22;9526;52.612;13.300;2024-01-10T08:45:33;-7.70;99.90
18797;DHT22;9526;52.612;13.300;2024-01-10T08:47:57;-7.60;99.90
18797;DHT22;9526;52.612;13.300;2024-01-10T08:50:21;-7.60;99.90
18797;DHT22;9526;52.612;13.300;2024-01-10T08:52:46;-7.50;99.90
18797;DHT22;9526;52.612;13.300;2024-01-10T08:55:10;-7.40;99.90
18797;DHT22;9526;52.612;13.300;2024-01-10T08:57:35;-7.40;99.90
18797;DHT22;9526;52.612;13.300;2024-01-10T08:59:59;-7.30;99.90
18797;DHT22;9526;52.612;13.300;2024-01-10T09:02:22;-7.20;99.90
18797;DHT22;9526;52.612;13.300;2024-01-10T09:04:47;-7.00;99.90
18797;DHT22;9526;52.612;13.300;2024-01-10T09:07:11;-7.10;99.90
18797;DHT22;9526;52.612;13.300;2024-01-10T09:09:36;-7.10;99.90
18797;DHT22;9526;52.612;13.300;2024-01-10T09:12:00;-7.00;99.90
18797;DHT22;9526;52.612;13.300;2024-01-10T09:14:25;-6.80;99.90
18797;DHT22;9526;52.612;13.300;2024-01-10T09:16:49;-6.80;99.90
18797;DHT22;9526;52.612;13.300;2024-01-10T09:19:12;-6.80;99.90
18797;DHT22;9526;52.612;13.300;2024-01-10T09:21:36;-6.70;99.90
18797;DHT22;9526;52.612;13.300;2024-01-10T09:24:00;-6.60;99.90
18797;DHT22;9526;52.612;13.300;2024-01-10T09:26:44;-6.50;99.90
18797;DHT22;9526;52.612;13.300;2024-01-10T09:29:08;-6.30;99.90
18797;DHT22;9526;52.612;13.300;2024-01-10T09:31:32;-6.20;99.90
18797;DHT22;9526;52.612;13.300;2024-01-10T09:33:56;-6.10;99.90
18797;DHT22;9526;52.612;13.300;2024-01-10T09:36:19;-6.00;99.90
18797;DHT22;9526;52.612;13.300;2024-01-10T09:38:43;-6.00;99.90
18797;DHT22;9526;52.612;13.300;2024-01-10T09:41:07;-5.90;99.90
18797;DHT22;9526;52.612;13.300;2024-01-10T09:43:33;-5.90;99.90
18797;DHT22;9526;52.612;13.300;2024-01-10T09:45:58;-5.80;99.90
18797;DHT22;9526;52.612;13.300;2024-01-10T09:48:23;-5.60;99.90
18797;DHT22;9526;52.612;13.300;2024-01-10T09:50:50;-5.40;99.90
18797;DHT22;9526;52.612;13.300;2024-01-10T09:53:21;-5.10;99.90
18797;DHT22;9526;52.612;13.300;2024-01-10T09:55:46;-5.00;99.90
18797;DHT22;9526;52.612;13.300;2024-01-10T09:58:10;-4.70;99.90
18797;DHT22;9526;52.612;13.300;2024-01-10T10:00:36;-4.60;99.90
18797;DHT22;9526;52.612;13.300;2024-01-10T10:03:01;-4.60;99.90
18797;DHT22;9526;52.612;13.300;2024-01-10T10:05:25;-4.50;99.90
18797;DHT22;9526;52.612;13.300;2024-01-10T10:07:50;-4.60;99.90
18797;DHT22;9526;52.612;13.300;2024-01-10T10:10:16;-4.60;99.90
18797;DHT22;9526;52.612;13.300;2024-01-10T10:12:44;-4.50;99.90
18797;DHT22;9526;52.612;13.300;2024-01-10T10:15:11;-4.50;99.90
18797;DHT22;9526;52.612;13.300;2024-01-10T10:17:38;-4.50;99.90
18797;DHT22;9526;52.612;13.300;2024-01-10T10:20:08;-4.40;99.90
18797;DHT22;9526;52.612;13.300;2024-01-10T10:22:33;-4.40;99.90
18797;DHT22;9526;52.612;13.300;2024-01-10T10:24:57;-4.40;99.90
18797;DHT22;9526;52.612;13.300;2024-01-10T10:27:20;-4.30;99.90
18797;DHT22;9526;52.612;13.300;2024-01-10T10:29:45;-4.30;99.90
18797;DHT22;9526;52.612;13.300;2024-01-10T10:32:09;-4.30;99.90
18797;DHT22;9526;52.612;13.300;2024-01-10T10:34:34;-4.20;99.90
18797;DHT22;9526;52.612;13.300;2024-01-10T10:36:58;-4.20;99.90
18797;DHT22;9526;52.612;13.300;2024-01-10T10:39:22;-4.10;99.90
18797;DHT22;9526;52.612;13.300;2024-01-10T10:41:47;-4.00;99.90
18797;DHT22;9526;52.612;13.300;2024-01-10T10:44:13;-4.00;99.90
18797;DHT22;9526;52.612;13.300;2024-01-10T10:46:39;-3.90;99.90
18797;DHT22;9526;52.612;13.300;2024-01-10T10:49:09;-3.80;99.90
18797;DHT22;9526;52.612;13.300;2024-01-10T10:51:37;-3.80;99.90
18797;DHT22;9526;52.612;13.300;2024-01-10T10:54:02;-3.80;99.90
18797;DHT22;9526;52.612;13.300;2024-01-10T10:56:30;-3.70;99.90
18797;DHT22;9526;52.612;13.300;2024-01-10T10:58:55;-3.70;99.90
18797;DHT22;9526;52.612;13.300;2024-01-10T11:01:20;-3.60;99.90
18797;DHT22;9526;52.612;13.300;2024-01-10T11:03:44;-3.60;99.90
18797;DHT22;9526;52.612;13.300;2024-01-10T11:06:10;-3.50;99.90
18797;DHT22;9526;52.612;13.300;2024-01-10T11:08:40;-3.50;99.90
18797;DHT22;9526;52.612;13.300;2024-01-10T11:11:14;-3.50;99.90
18797;DHT22;9526;52.612;13.300;2024-01-10T11:13:59;-3.40;99.90
18797;DHT22;9526;52.612;13.300;2024-01-10T11:16:57;-3.40;99.90
18797;DHT22;9526;52.612;13.300;2024-01-10T11:19:51;-3.30;99.90
18797;DHT22;9526;52.612;13.300;2024-01-10T11:22:37;-3.30;99.90
18797;DHT22;9526;52.612;13.300;2024-01-10T11:25:10;-3.20;99.90
18797;DHT22;9526;52.612;13.300;2024-01-10T11:27:36;-3.20;99.90
18797;DHT22;9526;52.612;13.300;2024-01-10T11:30:00;-3.20;99.90
18797;DHT22;9526;52.612;13.300;2024-01-10T11:32:27;-3.10;99.90
18797;DHT22;9526;52.612;13.300;2024-01-10T11:34:54;-3.10;99.90
18797;DHT22;9526;52.612;13.300;2024-01-10T11:37:18;-3.00;99.90
18797;DHT22;9526;52.612;13.300;2024-01-10T11:39:42;-3.00;99.90
18797;DHT22;9526;52.612;13.300;2024-01-10T11:42:07;-2.90;99.90
18797;DHT22;9526;52.612;13.300;2024-01-10T11:44:32;-2.80;99.90
18797;DHT22;9526;52.612;13.300;2024-01-10T11:46:56;-2.80;99.90
18797;DHT22;9526;52.612;13.300;2024-01-10T11:49:22;-2.70;99.90
18797;DHT22;9526;52.612;13.300;2024-01-10T11:51:48;-2.70;99.90
18797;DHT22;9526;52.612;13.300;2024-01-10T11:54:40;-2.70;99.90
18797;DHT22;9526;52.612;13.300;2024-01-10T11:57:14;-2.60;99.90
18797;DHT22;9526;52.612;13.300;2024-01-10T11:59:43;-2.50;99.90
18797;DHT22;9526;52.612;13.300;2024-01-10T12:02:08;-2.50;99.90
18797;DHT22;9526;52.612;13.300;2024-01-10T12:04:32;-2.50;99.90
18797;DHT22;9526;52.612;13.300;2024-01-10T12:07:09;-2.40;99.90
18797;DHT22;9526;52.612;13.300;2024-01-10T12:09:33;-2.40;99.90
18797;DHT22;9526;52.612;13.300;2024-01-10T12:11:57;-2.40;99.90
18797;DHT22;9526;52.612;13.300;2024-01-10T12:14:22;-2.30;99.90
18797;DHT22;9526;52.612;13.300;2024-01-10T12:16:47;-2.30;99.90
18797;DHT22;9526;52.612;13.300;2024-01-10T12:19:11;-2.30;99.90
18797;DHT22;9526;52.612;13.300;2024-01-10T12:21:34;-2.20;99.90
18797;DHT22;9526;52.612;13.300;2024-01-10T12:23:58;-2.20;99.90
18797;DHT22;9526;52.612;13.300;2024-01-10T12:26:22;-2.20;99.90
18797;DHT22;9526;52.612;13.300;2024-01-10T12:28:54;-2.20;99.90
18797;DHT22;9526;52.612;13.300;2024-01-10T12:31:20;-2.20;99.90
18797;DHT22;9526;52.612;13.300;2024-01-10T12:33:44;-2.10;99.90
18797;DHT22;9526;52.612;13.300;2024-01-10T12:36:10;-2.00;99.90
18797;DHT22;9526;52.612;13.300;2024-01-10T12:38:34;-2.00;99.90
18797;DHT22;9526;52.612;13.300;2024-01-10T12:40:58;-1.90;99.90
18797;DHT22;9526;52.612;13.300;2024-01-10T12:43:22;-1.90;99.90
18797;DHT22;9526;52.612;13.300;2024-01-10T12:45:47;-1.80;99.90
18797;DHT22;9526;52.612;13.300;2024-01-10T12:48:14;-1.90;99.90
18797;DHT22;9526;52.612;13.300;2024-01-10T12:50:39;-1.80;99.90
18797;DHT22;9526;52.612;13.300;2024-01-10T12:53:03;-1.60;99.90
18797;DHT22;9526;52.612;13.300;2024-01-10T12:55:27;-1.80;99.90
18797;DHT22;9526;52.612;13.300;2024-01-10T12:57:51;-1.60;99.90
18797;DHT22;9526;52.612;13.300;2024-01-10T13:00:15;-1.70;99.90
18797;DHT22;9526;52.612;13.300;2024-01-10T13:02:39;-1.60;99.90
18797;DHT22;9526;52.612;13.300;2024-01-10T13:05:06;-1.60;99.90
18797;DHT22;9526;52.612;13.300;2024-01-10T13:07:31;-1.60;99.90
18797;DHT22;9526;52.612;13.300;2024-01-10T13:09:56;-1.50;99.90
18797;DHT22;9526;52.612;13.300;2024-01-10T13:12:20;-1.40;99.90
18797;DHT22;9526;52.612;13.300;2024-01-10T13:14:44;-1.50;99.90
18797;DHT22;9526;52.612;13.300;2024-01-10T13:17:07;-1.50;99.90
18797;DHT22;9526;52.612;13.300;2024-01-10T13:19:31;-1.40;99.90
18797;DHT22;9526;52.612;13.300;2024-01-10T13:21:57;-1.50;99.90
18797;DHT22;9526;52.612;13.300;2024-01-10T13:24:20;-1.40;99.90
18797;DHT22;9526;52.612;13.300;2024-01-10T13:26:44;-1.40;99.90
18797;DHT22;9526;52.612;13.300;2024-01-10T13:29:08;-1.30;99.90
18797;DHT22;9526;52.612;13.300;2024-01-10T13:31:32;-1.30;99.90
18797;DHT22;9526;52.612;13.300;2024-01-10T13:33:56;-1.30;99.90
18797;DHT22;9526;52.612;13.300;2024-01-10T13:36:19;-1.20;99.90
18797;DHT22;9526;52.612;13.300;2024-01-10T13:38:44;-1.30;99.90
18797;DHT22;9526;52.612;13.300;2024-01-10T13:41:08;-1.20;99.90
18797;DHT22;9526;52.612;13.300;2024-01-10T13:43:32;-1.20;99.90
18797;DHT22;9526;52.612;13.300;2024-01-10T13:45:55;-1.20;99.90
18797;DHT22;9526;52.612;13.300;2024-01-10T13:48:19;-1.20;99.90
18797;DHT22;9526;52.612;13.300;2024-01-10T13:50:43;-1.20;99.90
18797;DHT22;9526;52.612;13.300;2024-01-10T13:53:08;-1.10;99.90
18797;DHT22;9526;52.612;13.300;2024-01-10T13:55:33;-1.10;99.90
18797;DHT22;9526;52.612;13.300;2024-01-10T13:57:57;-1.10;99.90
18797;DHT22;9526;52.612;13.300;2024-01-10T14:00:21;-1.10;99.90
18797;DHT22;9526;52.612;13.300;2024-01-10T14:02:45;-1.10;99.90
18797;DHT22;9526;52.612;13.300;2024-01-10T14:05:09;-1.10;99.90
18797;DHT22;9526;52.612;13.300;2024-01-10T14:07:34;-1.10;99.90
18797;DHT22;9526;52.612;13.300;2024-01-10T14:09:58;-1.10;99.90
18797;DHT22;9526;52.612;13.300;2024-01-10T14:12:23;-1.10;99.90
18797;DHT22;9526;52.612;13.300;2024-01-10T14:14:46;-1.10;99.90
18797;DHT22;9526;52.612;13.300;2024-01-10T14:17:10;-1.00;99.90
18797;DHT22;9526;52.612;13.300;2024-01-10T14:19:34;-1.10;99.90
18797;DHT22;9526;52.612;13.300;2024-01-10T14:21:58;-1.10;99.90
18797;DHT22;9526;52.612;13.300;2024-01-10T14:24:28;-1.20;99.90
18797;DHT22;9526;52.612;13.300;2024-01-10T14:26:52;-1.20;99.90
18797;DHT22;9526;52.612;13.300;2024-01-10T14:29:18;-1.20;99.90
18797;DHT22;9526;52.612;13.300;2024-01-10T14:31:44;-1.20;99.90
18797;DHT22;9526;52.612;13.300;2024-01-10T14:34:28;-1.20;99.90
18797;DHT22;9526;52.612;13.300;2024-01-10T14:36:52;-1.20;99.90
18797;DHT22;9526;52.612;13.300;2024-01-10T14:39:16;-1.30;99.90
18797;DHT22;9526;52.612;13.300;2024-01-10T14:41:40;-1.20;99.90
18797;DHT22;9526;52.612;13.300;2024-01-10T14:44:04;-1.30;99.90
18797;DHT22;9526;52.612;13.300;2024-01-10T14:46:29;-1.40;99.90
18797;DHT22;9526;52.612;13.300;2024-01-10T14:48:52;-1.40;99.90
18797;DHT22;9526;52.612;13.300;2024-01-10T14:51:16;-1.40;99.90
18797;DHT22;9526;52.612;13.300;2024-01-10T14:53:41;-1.40;99.90
18797;DHT22;9526;52.612;13.300;2024-01-10T14:56:04;-1.50;99.90
18797;DHT22;9526;52.612;13.300;2024-01-10T14:58:28;-1.60;99.90
18797;DHT22;9526;52.612;13.300;2024-01-10T15:00:52;-1.60;99.90
18797;DHT22;9526;52.612;13.300;2024-01-10T15:03:17;-1.60;99.90
18797;DHT22;9526;52.612;13.300;2024-01-10T15:05:48;-1.60;99.90
18797;DHT22;9526;52.612;13.300;2024-01-10T15:08:12;-1.70;99.90
18797;DHT22;9526;52.612;13.300;2024-01-10T15:10:36;-1.80;99.90
18797;DHT22;9526;52.612;13.300;2024-01-10T15:13:05;-1.80;99.90
18797;DHT22;9526;52.612;13.300;2024-01-10T15:15:28;-1.90;99.90